createdAt,value
2023-03-19T00:01:05.940Z,63.15
2023-03-19T00:03:34.238Z,62.84
2023-03-19T00:06:03.961Z,62.77
2023-03-19T00:08:32.118Z,62.48
2023-03-19T00:11:00.323Z,62.64
2023-03-19T00:13:28.751Z,62.25
2023-03-19T00:15:56.925Z,62.02
2023-03-19T00:18:25.179Z,62.49
2023-03-19T00:20:53.339Z,62.65
2023-03-19T00:23:22.860Z,62.04
2023-03-19T00:25:50.987Z,61.79
2023-03-19T00:28:19.234Z,61.57
2023-03-19T00:30:47.465Z,61.22
2023-03-19T00:33:15.781Z,61.06
2023-03-19T00:35:44.000Z,61.53
2023-03-19T00:38:12.160Z,61.42
2023-03-19T00:40:42.575Z,61.45
2023-03-19T00:43:10.828Z,61.50
2023-03-19T00:45:38.998Z,61.19
2023-03-19T00:48:07.965Z,61.22
2023-03-19T00:50:36.389Z,61.20
2023-03-19T00:53:04.653Z,60.55
2023-03-19T00:55:33.109Z,60.33
2023-03-19T00:58:02.824Z,60.63
2023-03-19T01:00:30.931Z,60.65
2023-03-19T01:02:59.044Z,60.90
2023-03-19T01:05:27.890Z,60.27
2023-03-19T01:07:56.256Z,59.70
2023-03-19T01:10:26.011Z,59.55
2023-03-19T01:12:54.296Z,59.30
2023-03-19T01:15:23.855Z,59.01
2023-03-19T01:17:52.063Z,59.33
2023-03-19T01:20:23.926Z,58.83
2023-03-19T01:22:52.206Z,58.68
2023-03-19T01:25:20.550Z,58.32
2023-03-19T01:27:48.718Z,58.01
2023-03-19T01:30:18.545Z,57.79
2023-03-19T01:32:48.311Z,58.37
2023-03-19T01:35:17.023Z,58.14
2023-03-19T01:37:45.178Z,58.72
2023-03-19T01:40:15.511Z,58.68
2023-03-19T01:42:55.664Z,58.23
2023-03-19T01:45:38.574Z,58.47
2023-03-19T01:48:20.099Z,58.40
2023-03-19T01:50:53.887Z,58.40
2023-03-19T01:53:27.419Z,59.09
2023-03-19T01:56:03.907Z,58.89
2023-03-19T01:58:32.405Z,59.03
2023-03-19T02:01:00.578Z,59.31
2023-03-19T02:03:31.177Z,58.54
2023-03-19T02:06:01.005Z,59.30
2023-03-19T02:08:30.766Z,59.78
2023-03-19T02:11:00.413Z,59.74
2023-03-19T02:13:29.046Z,59.69
2023-03-19T02:15:58.196Z,59.03
2023-03-19T02:18:27.173Z,59.53
2023-03-19T02:21:06.790Z,59.34
2023-03-19T02:23:46.776Z,59.82
2023-03-19T02:26:18.651Z,58.97
2023-03-19T02:28:49.694Z,59.15
2023-03-19T02:31:18.645Z,59.52
2023-03-19T02:33:57.478Z,59.27
2023-03-19T02:36:31.458Z,59.32
2023-03-19T02:39:03.524Z,58.84
2023-03-19T02:41:35.266Z,59.47
2023-03-19T02:44:05.751Z,59.79
2023-03-19T02:46:34.026Z,58.96
2023-03-19T02:49:02.405Z,58.03
2023-03-19T02:51:30.622Z,57.57
2023-03-19T02:54:00.801Z,58.44
2023-03-19T02:56:28.992Z,58.44
2023-03-19T02:58:58.467Z,58.82
2023-03-19T03:01:26.731Z,58.80
2023-03-19T03:03:55.072Z,58.94
2023-03-19T03:06:23.202Z,58.26
2023-03-19T03:08:52.100Z,58.77
2023-03-19T03:11:20.308Z,58.75
2023-03-19T03:13:48.414Z,58.61
2023-03-19T03:16:18.373Z,58.05
2023-03-19T03:18:46.483Z,57.22
2023-03-19T03:21:15.215Z,56.94
2023-03-19T03:23:43.344Z,57.46
2023-03-19T03:26:11.423Z,57.58
2023-03-19T03:28:39.608Z,58.16
2023-03-19T03:31:07.966Z,57.31
2023-03-19T03:33:37.727Z,57.79
2023-03-19T03:36:06.624Z,57.04
2023-03-19T03:38:34.880Z,57.67
2023-03-19T03:41:03.380Z,56.79
2023-03-19T03:43:31.528Z,57.27
2023-03-19T03:45:59.669Z,57.00
2023-03-19T03:48:28.530Z,56.79
2023-03-19T03:50:58.016Z,56.75
2023-03-19T03:53:26.278Z,56.16
2023-03-19T03:55:54.398Z,55.86
2023-03-19T03:58:23.932Z,56.59
2023-03-19T04:00:52.340Z,57.45
2023-03-19T04:03:20.491Z,57.68
2023-03-19T04:05:48.595Z,57.28
2023-03-19T04:08:18.240Z,56.52
2023-03-19T04:10:46.368Z,56.76
2023-03-19T04:13:14.803Z,56.77
2023-03-19T04:15:44.310Z,57.78
2023-03-19T04:18:12.446Z,57.55
2023-03-19T04:20:41.211Z,57.47
2023-03-19T04:23:09.310Z,57.50
2023-03-19T04:25:41.137Z,58.07
2023-03-19T04:28:10.340Z,58.09
2023-03-19T04:30:38.877Z,58.28
2023-03-19T04:33:07.288Z,58.32
2023-03-19T04:35:36.266Z,59.12
2023-03-19T04:38:05.434Z,59.56
2023-03-19T04:40:33.889Z,60.18
2023-03-19T04:43:03.774Z,60.47
2023-03-19T04:45:32.251Z,60.48
2023-03-19T04:48:00.372Z,60.14
2023-03-19T04:50:29.225Z,60.95
2023-03-19T04:52:57.553Z,60.92
2023-03-19T04:55:25.695Z,61.41
2023-03-19T04:57:53.825Z,62.35
2023-03-19T05:00:23.692Z,63.02
2023-03-19T05:02:51.919Z,63.38
2023-03-19T05:05:20.031Z,62.11
2023-03-19T05:07:48.277Z,62.49
2023-03-19T05:10:16.661Z,62.93
2023-03-19T05:12:44.793Z,62.82
2023-03-19T05:15:13.418Z,63.17
2023-03-19T05:17:43.840Z,63.20
2023-03-19T05:20:14.319Z,63.73
2023-03-19T05:22:42.515Z,63.96
2023-03-19T05:25:11.082Z,63.71
2023-03-19T05:27:39.289Z,64.07
2023-03-19T05:30:10.903Z,62.52
2023-03-19T05:32:40.669Z,63.14
2023-03-19T05:35:11.249Z,63.57
2023-03-19T05:37:39.822Z,61.61
2023-03-19T05:40:08.995Z,61.06
2023-03-19T05:42:37.888Z,61.35
2023-03-19T05:45:07.040Z,60.61
2023-03-19T05:47:35.396Z,60.45
2023-03-19T05:50:03.674Z,59.49
2023-03-19T05:52:33.230Z,59.92
2023-03-19T05:55:01.442Z,60.27
2023-03-19T05:57:29.874Z,59.36
2023-03-19T05:59:58.214Z,59.61
2023-03-19T06:02:26.974Z,60.65
2023-03-19T06:04:55.098Z,60.00
2023-03-19T06:07:23.240Z,60.82
2023-03-19T06:09:52.902Z,61.20
2023-03-19T06:12:21.880Z,60.28
2023-03-19T06:14:50.080Z,60.20
2023-03-19T06:17:18.364Z,60.33
2023-03-19T06:19:46.507Z,59.64
2023-03-19T06:22:14.661Z,60.07
2023-03-19T06:24:42.969Z,58.91
2023-03-19T06:27:12.953Z,58.92
2023-03-19T06:29:41.103Z,58.53
2023-03-19T06:32:10.833Z,58.72
2023-03-19T06:34:38.979Z,58.51
2023-03-19T06:37:07.469Z,57.76
2023-03-19T06:39:35.618Z,57.09
2023-03-19T06:42:03.745Z,56.46
2023-03-19T06:44:33.499Z,56.25
2023-03-19T06:47:01.584Z,55.74
2023-03-19T06:49:29.689Z,55.98
2023-03-19T06:51:57.820Z,56.20
2023-03-19T06:54:26.068Z,56.30
2023-03-19T06:56:54.206Z,55.25
2023-03-19T06:59:22.642Z,54.90
2023-03-19T07:01:52.484Z,55.15
2023-03-19T07:04:21.379Z,55.14
2023-03-19T07:06:49.564Z,54.55
2023-03-19T07:09:17.774Z,54.71
2023-03-19T07:11:46.008Z,54.58
2023-03-19T07:14:14.161Z,54.38
2023-03-19T07:16:42.319Z,54.27
2023-03-19T07:19:11.864Z,54.03
2023-03-19T07:21:40.293Z,53.95
2023-03-19T07:24:08.738Z,53.47
2023-03-19T07:26:36.902Z,53.33
2023-03-19T07:29:05.025Z,53.42
2023-03-19T07:31:33.287Z,53.74
2023-03-19T07:34:01.440Z,52.98
2023-03-19T07:36:31.370Z,52.36
2023-03-19T07:38:59.532Z,52.62
2023-03-19T07:41:27.652Z,52.29
2023-03-19T07:43:55.900Z,51.43
2023-03-19T07:46:24.121Z,52.20
2023-03-19T07:48:52.585Z,51.90
2023-03-19T07:51:21.327Z,51.92
2023-03-19T07:53:50.786Z,51.92
2023-03-19T07:56:18.912Z,51.99
2023-03-19T07:58:47.014Z,52.01
2023-03-19T08:01:15.434Z,51.92
2023-03-19T08:03:43.836Z,52.06
2023-03-19T08:06:12.468Z,52.28
2023-03-19T08:08:41.047Z,52.12
2023-03-19T08:11:10.778Z,51.95
2023-03-19T08:13:38.960Z,51.91
2023-03-19T08:16:08.536Z,51.92
2023-03-19T08:18:36.926Z,51.24
2023-03-19T08:21:05.737Z,51.38
2023-03-19T08:23:33.887Z,51.26
2023-03-19T08:26:02.186Z,50.52
2023-03-19T08:28:31.729Z,50.10
2023-03-19T08:30:59.929Z,49.57
2023-03-19T08:33:28.208Z,49.03
2023-03-19T08:36:07.810Z,49.04
2023-03-19T08:38:36.132Z,48.57
2023-03-19T08:41:04.438Z,48.15
2023-03-19T08:43:36.609Z,47.89
2023-03-19T08:46:05.950Z,47.82
2023-03-19T08:48:34.357Z,47.20
2023-03-19T08:51:04.501Z,47.12
2023-03-19T08:53:34.110Z,48.01
2023-03-19T08:56:06.149Z,48.07
2023-03-19T08:58:36.269Z,47.93
2023-03-19T09:01:09.996Z,48.48
2023-03-19T09:03:38.693Z,48.50
2023-03-19T09:06:10.793Z,48.69
2023-03-19T09:08:39.621Z,48.93
2023-03-19T09:11:08.095Z,48.01
2023-03-19T09:13:38.485Z,48.07
2023-03-19T09:16:07.892Z,48.27
2023-03-19T09:18:36.607Z,48.79
2023-03-19T09:21:05.947Z,48.30
2023-03-19T09:23:34.517Z,48.78
2023-03-19T09:26:02.800Z,48.71
2023-03-19T09:28:31.132Z,48.36
2023-03-19T09:31:06.924Z,48.31
2023-03-19T09:33:35.270Z,48.03
2023-03-19T09:36:03.553Z,48.13
2023-03-19T09:38:31.719Z,48.40
2023-03-19T09:41:11.309Z,48.53
2023-03-19T09:44:01.349Z,47.88
2023-03-19T09:46:43.321Z,47.82
2023-03-19T09:49:23.090Z,46.87
2023-03-19T09:51:55.940Z,46.36
2023-03-19T09:54:36.235Z,45.88
2023-03-19T09:57:05.388Z,45.76
2023-03-19T09:59:33.698Z,45.50
2023-03-19T10:02:41.395Z,45.48
2023-03-19T10:05:27.022Z,45.55
2023-03-19T10:08:33.726Z,45.59
2023-03-19T10:11:25.911Z,46.00
2023-03-19T10:14:17.046Z,45.03
2023-03-19T10:16:52.043Z,45.54
2023-03-19T10:19:32.406Z,45.78
2023-03-19T10:22:08.789Z,45.43
2023-03-19T10:24:41.470Z,44.50
2023-03-19T10:27:15.756Z,44.86
2023-03-19T10:29:44.165Z,44.70
2023-03-19T10:32:21.185Z,44.90
2023-03-19T10:34:53.856Z,45.11
2023-03-19T10:37:25.490Z,45.22
2023-03-19T10:39:57.912Z,44.53
2023-03-19T10:42:57.358Z,44.59
2023-03-19T10:45:29.182Z,45.43
2023-03-19T10:47:59.439Z,45.34
2023-03-19T10:50:36.153Z,45.14
2023-03-19T10:53:22.302Z,45.65
2023-03-19T10:55:55.958Z,45.38
2023-03-19T10:58:28.268Z,45.67
2023-03-19T11:00:59.612Z,44.79
2023-03-19T11:03:34.450Z,44.97
2023-03-19T11:06:18.447Z,45.12
2023-03-19T11:08:56.864Z,44.53
2023-03-19T11:11:36.800Z,44.54
2023-03-19T11:14:11.139Z,44.35
2023-03-19T11:16:57.272Z,45.55
2023-03-19T11:19:29.519Z,45.52
2023-03-19T11:22:11.056Z,45.84
2023-03-19T11:24:41.393Z,46.88
2023-03-19T11:27:11.485Z,45.79
2023-03-19T11:29:44.318Z,45.78
2023-03-19T11:32:46.658Z,45.62
2023-03-19T11:35:22.305Z,45.39
2023-03-19T11:38:00.652Z,45.95
2023-03-19T11:40:43.785Z,46.19
2023-03-19T11:43:45.463Z,46.19
2023-03-19T11:46:37.529Z,46.60
2023-03-19T11:49:54.405Z,46.93
2023-03-19T11:52:33.832Z,47.50
2023-03-19T11:55:22.172Z,46.96
2023-03-19T11:58:23.744Z,47.24
2023-03-19T12:00:53.863Z,47.10
2023-03-19T12:04:02.721Z,46.91
2023-03-19T12:06:47.665Z,46.19
2023-03-19T12:09:29.110Z,45.68
2023-03-19T12:12:13.086Z,45.64
2023-03-19T12:15:00.791Z,45.30
2023-03-19T12:17:47.245Z,45.13
2023-03-19T12:20:46.726Z,45.00
2023-03-19T12:23:35.844Z,45.88
2023-03-19T12:26:08.791Z,46.42
2023-03-19T12:28:49.271Z,47.24
2023-03-19T12:32:01.464Z,47.88
2023-03-19T12:34:36.525Z,48.80
2023-03-19T12:37:22.503Z,49.14
2023-03-19T12:40:07.556Z,49.90
2023-03-19T12:42:41.058Z,49.71
2023-03-19T12:45:30.384Z,49.89
2023-03-19T12:48:06.309Z,50.54
2023-03-19T12:50:39.646Z,51.78
2023-03-19T12:53:15.785Z,52.19
2023-03-19T12:55:51.385Z,55.10
2023-03-19T12:58:28.236Z,55.37
2023-03-19T13:01:08.874Z,56.60
2023-03-19T13:03:51.565Z,56.23
2023-03-19T13:06:26.022Z,57.42
2023-03-19T13:09:03.009Z,58.76
2023-03-19T13:11:45.179Z,58.23
2023-03-19T13:14:26.621Z,57.76
2023-03-19T13:17:08.484Z,57.94
2023-03-19T13:19:47.078Z,57.53
2023-03-19T13:22:22.417Z,55.80
2023-03-19T13:24:53.399Z,55.69
2023-03-19T13:27:27.156Z,56.44
2023-03-19T13:30:08.510Z,57.05
2023-03-19T13:32:44.333Z,56.98
2023-03-19T13:35:40.599Z,58.04
2023-03-19T13:38:21.117Z,58.81
2023-03-19T13:40:52.039Z,59.57
2023-03-19T13:43:54.362Z,60.61
2023-03-19T13:46:39.781Z,61.19
2023-03-19T13:49:33.580Z,61.97
2023-03-19T13:52:30.289Z,63.30
2023-03-19T13:55:32.656Z,64.63
2023-03-19T13:58:38.350Z,67.67
2023-03-19T14:01:10.408Z,69.10
2023-03-19T14:03:54.208Z,70.26
2023-03-19T14:06:39.845Z,71.71
2023-03-19T14:09:48.530Z,71.93
2023-03-19T14:12:32.841Z,71.36
2023-03-19T14:15:05.847Z,71.88
2023-03-19T14:17:37.505Z,72.34
2023-03-19T14:20:37.365Z,72.85
2023-03-19T14:23:41.262Z,73.64
2023-03-19T14:26:22.865Z,74.36
2023-03-19T14:29:00.370Z,74.17
2023-03-19T14:31:36.213Z,72.82
2023-03-19T14:34:19.160Z,72.94
2023-03-19T14:36:53.863Z,72.68
2023-03-19T14:39:27.419Z,73.55
2023-03-19T14:42:06.161Z,73.88
2023-03-19T14:45:32.596Z,73.25
2023-03-19T14:48:38.795Z,73.49
2023-03-19T14:51:58.920Z,72.61
2023-03-19T14:54:41.987Z,72.93
2023-03-19T14:57:18.016Z,73.50
2023-03-19T14:59:46.781Z,73.77
2023-03-19T15:02:34.765Z,73.49
2023-03-19T15:05:08.577Z,72.77
2023-03-19T15:07:41.517Z,73.22
2023-03-19T15:10:20.154Z,73.58
2023-03-19T15:13:08.570Z,73.38
2023-03-19T15:15:54.212Z,72.36
2023-03-19T15:18:23.447Z,72.34
2023-03-19T15:20:55.318Z,72.09
2023-03-19T15:23:28.603Z,72.40
2023-03-19T15:26:01.766Z,72.36
2023-03-19T15:28:34.537Z,72.12
2023-03-19T15:31:28.650Z,72.23
2023-03-19T15:33:55.112Z,71.71
2023-03-19T15:36:29.964Z,71.72
2023-03-19T15:39:04.073Z,72.18
2023-03-19T15:41:40.214Z,72.42
2023-03-19T15:44:18.751Z,72.43
2023-03-19T15:46:49.541Z,72.04
2023-03-19T15:49:26.282Z,72.05
2023-03-19T15:52:03.007Z,71.64
2023-03-19T15:54:31.284Z,71.85
2023-03-19T15:57:00.876Z,72.21
2023-03-19T15:59:31.876Z,71.50
2023-03-19T16:02:03.625Z,70.93
2023-03-19T16:04:37.911Z,71.24
2023-03-19T16:07:26.940Z,71.29
2023-03-19T16:09:55.459Z,71.55
2023-03-19T16:12:39.309Z,72.03
2023-03-19T16:15:29.395Z,72.49
2023-03-19T16:18:10.629Z,72.56
2023-03-19T16:20:45.865Z,72.80
2023-03-19T16:23:19.399Z,71.94
2023-03-19T16:25:48.375Z,71.49
2023-03-19T16:28:23.769Z,72.02
2023-03-19T16:30:52.910Z,72.71
2023-03-19T16:33:21.143Z,72.91
2023-03-19T16:35:53.046Z,72.69
2023-03-19T16:38:25.997Z,72.40
2023-03-19T16:41:23.927Z,70.40
2023-03-19T16:43:55.256Z,71.57
2023-03-19T16:46:24.718Z,70.70
2023-03-19T16:48:52.770Z,71.20
2023-03-19T16:51:22.667Z,71.95
2023-03-19T16:53:51.019Z,72.84
2023-03-19T16:56:19.211Z,72.94
2023-03-19T16:58:48.181Z,72.32
2023-03-19T17:01:21.256Z,72.64
2023-03-19T17:03:50.628Z,73.08
2023-03-19T17:06:20.074Z,73.12
2023-03-19T17:08:48.465Z,73.85
2023-03-19T17:11:25.683Z,73.80
2023-03-19T17:13:55.479Z,72.05
2023-03-19T17:16:25.604Z,73.23
2023-03-19T17:18:54.448Z,72.80
2023-03-19T17:21:27.015Z,73.05
2023-03-19T17:23:56.028Z,73.27
2023-03-19T17:26:26.777Z,73.57
2023-03-19T17:28:56.119Z,73.54
2023-03-19T17:31:31.473Z,73.79
2023-03-19T17:34:04.413Z,73.32
2023-03-19T17:36:33.478Z,73.26
2023-03-19T17:39:01.882Z,73.30
2023-03-19T17:41:32.823Z,73.48
2023-03-19T17:44:02.913Z,73.91
2023-03-19T17:46:39.663Z,74.01
2023-03-19T17:49:13.329Z,73.43
2023-03-19T17:51:41.436Z,74.10
2023-03-19T17:54:13.457Z,74.15
2023-03-19T17:56:43.384Z,74.08
2023-03-19T17:59:12.146Z,74.22
2023-03-19T18:01:43.966Z,74.61
2023-03-19T18:04:16.705Z,74.66
2023-03-19T18:06:49.531Z,74.89
2023-03-19T18:09:22.467Z,75.29
2023-03-19T18:11:51.467Z,75.39
2023-03-19T18:14:19.622Z,75.96
2023-03-19T18:16:49.323Z,76.07
2023-03-19T18:19:25.835Z,75.47
2023-03-19T18:21:53.916Z,75.06
2023-03-19T18:24:21.997Z,74.63
2023-03-19T18:26:50.355Z,75.00
2023-03-19T18:29:18.438Z,75.48
2023-03-19T18:31:52.114Z,75.34
2023-03-19T18:34:20.491Z,75.26
2023-03-19T18:36:48.616Z,75.46
2023-03-19T18:39:17.450Z,75.21
2023-03-19T18:41:45.746Z,75.31
2023-03-19T18:44:13.855Z,74.86
2023-03-19T18:46:43.087Z,74.94
2023-03-19T18:49:25.077Z,74.59
2023-03-19T18:52:02.757Z,74.86
2023-03-19T18:54:32.782Z,75.51
2023-03-19T18:57:02.680Z,75.83
2023-03-19T18:59:33.940Z,76.05
2023-03-19T19:02:20.275Z,75.98
2023-03-19T19:04:49.883Z,76.05
2023-03-19T19:07:18.168Z,76.47
2023-03-19T19:09:46.444Z,76.84
2023-03-19T19:12:19.015Z,77.32
2023-03-19T19:14:47.614Z,77.28
2023-03-19T19:17:18.497Z,77.44
2023-03-19T19:19:46.771Z,77.79
2023-03-19T19:22:18.748Z,78.10
2023-03-19T19:24:47.660Z,78.22
2023-03-19T19:27:19.973Z,78.47
2023-03-19T19:29:48.905Z,78.42
2023-03-19T19:32:24.550Z,78.52
2023-03-19T19:34:53.098Z,78.66
2023-03-19T19:37:24.236Z,78.89
2023-03-19T19:39:53.493Z,78.94
2023-03-19T19:42:23.712Z,79.16
2023-03-19T19:44:55.287Z,78.62
2023-03-19T19:47:23.532Z,78.41
2023-03-19T19:49:51.909Z,78.65
2023-03-19T19:52:22.141Z,78.69
2023-03-19T19:54:51.839Z,78.83
2023-03-19T19:57:24.607Z,79.04
2023-03-19T19:59:55.318Z,79.03
2023-03-19T20:02:29.531Z,78.92
2023-03-19T20:04:58.649Z,79.05
2023-03-19T20:07:28.136Z,79.50
2023-03-19T20:09:56.291Z,79.64
2023-03-19T20:12:29.284Z,79.82
2023-03-19T20:14:58.569Z,79.43
2023-03-19T20:17:27.362Z,79.21
2023-03-19T20:19:55.703Z,78.98
2023-03-19T20:22:23.760Z,79.29
2023-03-19T20:24:53.144Z,79.03
2023-03-19T20:27:33.619Z,79.47
2023-03-19T20:30:01.798Z,79.59
2023-03-19T20:32:36.189Z,79.92
2023-03-19T20:35:08.286Z,79.82
2023-03-19T20:37:36.370Z,79.78
2023-03-19T20:40:07.153Z,79.82
2023-03-19T20:42:35.693Z,80.38
2023-03-19T20:45:04.506Z,80.90
2023-03-19T20:47:33.313Z,81.49
2023-03-19T20:50:01.838Z,81.98
2023-03-19T20:52:30.825Z,81.75
2023-03-19T20:54:59.181Z,81.39
2023-03-19T20:57:30.678Z,81.76
2023-03-19T21:00:04.100Z,82.17
2023-03-19T21:02:32.351Z,82.37
2023-03-19T21:05:01.065Z,82.55
2023-03-19T21:07:33.431Z,82.67
2023-03-19T21:10:07.072Z,82.65
2023-03-19T21:12:36.801Z,82.65
2023-03-19T21:15:06.409Z,82.78
2023-03-19T21:17:34.875Z,82.86
2023-03-19T21:20:03.037Z,82.99
2023-03-19T21:22:32.810Z,82.73
2023-03-19T21:25:06.854Z,82.55
2023-03-19T21:27:38.171Z,82.46
2023-03-19T21:30:08.419Z,82.23
2023-03-19T21:32:36.495Z,81.59
2023-03-19T21:35:04.977Z,81.08
2023-03-19T21:37:33.461Z,80.05
2023-03-19T21:40:02.032Z,79.61
2023-03-19T21:42:32.796Z,79.09
2023-03-19T21:45:02.433Z,79.24
2023-03-19T21:47:30.520Z,79.15
2023-03-19T21:50:00.223Z,78.54
2023-03-19T21:52:28.476Z,78.14
2023-03-19T21:54:56.955Z,78.16
2023-03-19T21:57:26.009Z,77.58
2023-03-19T21:59:54.169Z,76.69
2023-03-19T22:02:43.393Z,77.60
2023-03-19T22:05:21.315Z,77.72
2023-03-19T22:07:50.057Z,77.22
2023-03-19T22:10:19.782Z,77.15
2023-03-19T22:12:49.648Z,76.50
2023-03-19T22:15:29.193Z,76.42
2023-03-19T22:17:59.832Z,76.65
2023-03-19T22:20:28.710Z,76.74
2023-03-19T22:22:58.262Z,76.48
2023-03-19T22:25:35.325Z,76.67
2023-03-19T22:28:16.554Z,76.73
2023-03-19T22:30:45.270Z,76.95
2023-03-19T22:33:19.246Z,77.19
2023-03-19T22:35:49.589Z,77.07
2023-03-19T22:38:18.913Z,76.90
2023-03-19T22:40:50.933Z,76.58
2023-03-19T22:43:28.281Z,77.13
2023-03-19T22:46:00.800Z,76.94
2023-03-19T22:48:30.456Z,77.15
2023-03-19T22:50:58.811Z,77.67
2023-03-19T22:53:29.722Z,77.41
2023-03-19T22:55:58.877Z,77.62
2023-03-19T22:58:27.824Z,77.21
2023-03-19T23:00:57.252Z,76.91
2023-03-19T23:03:28.321Z,76.82
2023-03-19T23:06:02.317Z,76.41
2023-03-19T23:08:30.713Z,76.09
2023-03-19T23:10:59.146Z,75.98
2023-03-19T23:13:27.311Z,75.49
2023-03-19T23:16:00.198Z,76.00
2023-03-19T23:18:32.910Z,76.08
2023-03-19T23:21:03.582Z,76.18
2023-03-19T23:23:33.565Z,76.17
2023-03-19T23:26:01.928Z,76.33
2023-03-19T23:28:34.040Z,76.81
2023-03-19T23:31:03.846Z,76.84
2023-03-19T23:33:32.049Z,77.01
2023-03-19T23:36:00.600Z,76.20
2023-03-19T23:38:30.120Z,76.28
2023-03-19T23:40:58.740Z,75.15
2023-03-19T23:43:29.882Z,75.63
2023-03-19T23:45:58.762Z,76.08
2023-03-19T23:48:33.609Z,76.65
2023-03-19T23:51:02.156Z,77.26
2023-03-19T23:53:32.019Z,77.31
2023-03-19T23:56:04.659Z,77.45
2023-03-19T23:58:40.160Z,77.60
